sensor_id;sensor_type;location;lat;lon;timestamp;temperature;humidity
20349;DHT22;10332;50.208;18.988;2024-01-11T00:00:52;-3.70;99.90
20349;DHT22;10332;50.208;18.988;2024-01-11T00:03:37;-3.70;99.90
20349;DHT22;10332;50.208;18.988;2024-01-11T00:06:04;-3.70;99.90
20349;DHT22;10332;50.208;18.988;2024-01-11T00:08:32;-3.70;99.90
20349;DHT22;10332;50.208;18.988;2024-01-11T00:10:59;-3.70;99.90
20349;DHT22;10332;50.208;18.988;2024-01-11T00:13:27;-3.70;99.90
20349;DHT22;10332;50.208;18.988;2024-01-11T00:15:54;-3.70;99.90
20349;DHT22;10332;50.208;18.988;2024-01-11T00:18:22;-3.70;99.90
20349;DHT22;10332;50.208;18.988;2024-01-11T00:20:49;-3.70;99.90
20349;DHT22;10332;50.208;18.988;2024-01-11T00:23:17;-3.70;99.90
20349;DHT22;10332;50.208;18.988;2024-01-11T00:25:44;-3.70;99.90
20349;DHT22;10332;50.208;18.988;2024-01-11T00:28:11;-3.70;99.90
20349;DHT22;10332;50.208;18.988;2024-01-11T00:30:38;-3.70;99.90
20349;DHT22;10332;50.208;18.988;2024-01-11T00:33:06;-3.80;99.90
20349;DHT22;10332;50.208;18.988;2024-01-11T00:35:34;-3.80;99.90
20349;DHT22;10332;50.208;18.988;2024-01-11T00:38:02;-3.80;99.90
20349;DHT22;10332;50.208;18.988;2024-01-11T00:40:29;-3.80;99.90
20349;DHT22;10332;50.208;18.988;2024-01-11T00:42:57;-3.80;99.90
20349;DHT22;10332;50.208;18.988;2024-01-11T00:45:24;-4.00;99.90
20349;DHT22;10332;50.208;18.988;2024-01-11T00:47:51;-4.00;99.90
20349;DHT22;10332;50.208;18.988;2024-01-11T00:50:19;-4.00;99.90
20349;DHT22;10332;50.208;18.988;2024-01-11T00:52:46;-4.00;99.90
20349;DHT22;10332;50.208;18.988;2024-01-11T00:55:13;-4.00;99.90
20349;DHT22;10332;50.208;18.988;2024-01-11T00:57:43;-4.00;99.90
20349;DHT22;10332;50.208;18.988;2024-01-11T01:00:11;-4.00;99.90
20349;DHT22;10332;50.208;18.988;2024-01-11T01:02:42;-4.00;99.90
20349;DHT22;10332;50.208;18.988;2024-01-11T01:05:10;-4.00;99.90
20349;DHT22;10332;50.208;18.988;2024-01-11T01:07:38;-4.00;99.90
20349;DHT22;10332;50.208;18.988;2024-01-11T01:10:06;-4.00;99.90
20349;DHT22;10332;50.208;18.988;2024-01-11T01:12:33;-4.00;99.90
20349;DHT22;10332;50.208;18.988;2024-01-11T01:15:00;-4.00;99.90
20349;DHT22;10332;50.208;18.988;2024-01-11T01:17:28;-4.00;99.90
20349;DHT22;10332;50.208;18.988;2024-01-11T01:19:55;-4.00;99.90
20349;DHT22;10332;50.208;18.988;2024-01-11T01:22:23;-4.10;99.90
20349;DHT22;10332;50.208;18.988;2024-01-11T01:24:50;-4.10;99.90
20349;DHT22;10332;50.208;18.988;2024-01-11T01:27:18;-4.10;99.90
20349;DHT22;10332;50.208;18.988;2024-01-11T01:29:45;-4.20;99.90
20349;DHT22;10332;50.208;18.988;2024-01-11T01:32:13;-4.20;99.90
20349;DHT22;10332;50.208;18.988;2024-01-11T01:34:40;-4.20;99.90
20349;DHT22;10332;50.208;18.988;2024-01-11T01:37:08;-4.20;99.90
20349;DHT22;10332;50.208;18.988;2024-01-11T01:39:37;-4.40;99.90
20349;DHT22;10332;50.208;18.988;2024-01-11T01:42:06;-4.40;99.90
20349;DHT22;10332;50.208;18.988;2024-01-11T01:44:34;-4.40;99.90
20349;DHT22;10332;50.208;18.988;2024-01-11T01:47:02;-4.40;99.90
20349;DHT22;10332;50.208;18.988;2024-01-11T01:49:31;-4.40;99.90
20349;DHT22;10332;50.208;18.988;2024-01-11T01:51:59;-4.50;99.90
20349;DHT22;10332;50.208;18.988;2024-01-11T01:54:26;-4.50;99.90
20349;DHT22;10332;50.208;18.988;2024-01-11T01:56:54;-4.50;99.90
20349;DHT22;10332;50.208;18.988;2024-01-11T01:59:22;-4.50;99.90
20349;DHT22;10332;50.208;18.988;2024-01-11T02:01:51;-4.50;99.90
20349;DHT22;10332;50.208;18.988;2024-01-11T02:04:19;-4.50;99.90
20349;DHT22;10332;50.208;18.988;2024-01-11T02:06:47;-4.50;99.90
20349;DHT22;10332;50.208;18.988;2024-01-11T02:09:15;-4.60;99.90
20349;DHT22;10332;50.208;18.988;2024-01-11T02:11:45;-4.60;99.90
20349;DHT22;10332;50.208;18.988;2024-01-11T02:14:12;-4.50;99.90
20349;DHT22;10332;50.208;18.988;2024-01-11T02:16:39;-4.50;99.90
20349;DHT22;10332;50.208;18.988;2024-01-11T02:19:07;-4.50;99.90
20349;DHT22;10332;50.208;18.988;2024-01-11T02:21:37;-4.50;99.90
20349;DHT22;10332;50.208;18.988;2024-01-11T02:24:06;-4.50;99.90
20349;DHT22;10332;50.208;18.988;2024-01-11T02:26:34;-4.50;99.90
20349;DHT22;10332;50.208;18.988;2024-01-11T02:29:01;-4.50;99.90
20349;DHT22;10332;50.208;18.988;2024-01-11T02:31:29;-4.50;99.90
20349;DHT22;10332;50.208;18.988;2024-01-11T02:33:56;-4.40;99.90
20349;DHT22;10332;50.208;18.988;2024-01-11T02:36:25;-4.40;99.90
20349;DHT22;10332;50.208;18.988;2024-01-11T02:38:53;-4.50;99.90
20349;DHT22;10332;50.208;18.988;2024-01-11T02:41:21;-4.40;99.90
20349;DHT22;10332;50.208;18.988;2024-01-11T02:43:49;-4.50;99.90
20349;DHT22;10332;50.208;18.988;2024-01-11T02:46:17;-4.50;99.90
20349;DHT22;10332;50.208;18.988;2024-01-11T02:48:44;-4.40;99.90
20349;DHT22;10332;50.208;18.988;2024-01-11T02:51:12;-4.50;99.90
20349;DHT22;10332;50.208;18.988;2024-01-11T02:53:40;-4.50;99.90
20349;DHT22;10332;50.208;18.988;2024-01-11T02:56:07;-4.50;99.90
20349;DHT22;10332;50.208;18.988;2024-01-11T02:58:34;-4.50;99.90
20349;DHT22;10332;50.208;18.988;2024-01-11T03:01:02;-4.50;99.90
20349;DHT22;10332;50.208;18.988;2024-01-11T03:03:29;-4.50;99.90
20349;DHT22;10332;50.208;18.988;2024-01-11T03:05:57;-4.50;99.90
20349;DHT22;10332;50.208;18.988;2024-01-11T03:08:25;-4.50;99.90
20349;DHT22;10332;50.208;18.988;2024-01-11T03:10:53;-4.50;99.90
20349;DHT22;10332;50.208;18.988;2024-01-11T03:13:20;-4.40;99.90
20349;DHT22;10332;50.208;18.988;2024-01-11T03:15:48;-4.50;1.00
20349;DHT22;10332;50.208;18.988;2024-01-11T03:18:15;-4.60;1.00
20349;DHT22;10332;50.208;18.988;2024-01-11T03:20:42;-4.60;1.00
20349;DHT22;10332;50.208;18.988;2024-01-11T03:23:09;-4.50;1.00
20349;DHT22;10332;50.208;18.988;2024-01-11T03:25:37;-4.60;1.00
20349;DHT22;10332;50.208;18.988;2024-01-11T03:28:04;-4.70;1.00
20349;DHT22;10332;50.208;18.988;2024-01-11T03:30:32;-4.70;1.00
20349;DHT22;10332;50.208;18.988;2024-01-11T03:32:59;-4.70;1.00
20349;DHT22;10332;50.208;18.988;2024-01-11T03:35:27;-4.80;1.00
20349;DHT22;10332;50.208;18.988;2024-01-11T03:37:54;-4.80;1.00
20349;DHT22;10332;50.208;18.988;2024-01-11T03:40:22;-4.80;1.00
20349;DHT22;10332;50.208;18.988;2024-01-11T03:42:49;-4.80;1.00
20349;DHT22;10332;50.208;18.988;2024-01-11T03:45:20;-4.80;1.00
20349;DHT22;10332;50.208;18.988;2024-01-11T03:47:47;-4.80;1.00
20349;DHT22;10332;50.208;18.988;2024-01-11T03:50:15;-4.80;1.00
20349;DHT22;10332;50.208;18.988;2024-01-11T03:52:42;-4.80;1.00
20349;DHT22;10332;50.208;18.988;2024-01-11T03:55:10;-4.80;1.00
20349;DHT22;10332;50.208;18.988;2024-01-11T03:57:37;-4.70;1.00
20349;DHT22;10332;50.208;18.988;2024-01-11T04:00:05;-4.70;1.00
20349;DHT22;10332;50.208;18.988;2024-01-11T04:02:37;-4.70;1.00
20349;DHT22;10332;50.208;18.988;2024-01-11T04:05:05;-4.60;1.00
20349;DHT22;10332;50.208;18.988;2024-01-11T04:07:32;-4.70;1.00
20349;DHT22;10332;50.208;18.988;2024-01-11T04:10:00;-4.70;1.00
20349;DHT22;10332;50.208;18.988;2024-01-11T04:12:27;-4.60;1.00
20349;DHT22;10332;50.208;18.988;2024-01-11T04:14:55;-4.60;1.00
20349;DHT22;10332;50.208;18.988;2024-01-11T04:17:22;-4.70;1.00
20349;DHT22;10332;50.208;18.988;2024-01-11T04:19:50;-4.70;1.00
20349;DHT22;10332;50.208;18.988;2024-01-11T04:22:17;-4.70;1.00
20349;DHT22;10332;50.208;18.988;2024-01-11T04:24:44;-4.70;1.00
20349;DHT22;10332;50.208;18.988;2024-01-11T04:27:12;-4.80;1.00
20349;DHT22;10332;50.208;18.988;2024-01-11T04:29:39;-4.80;1.00
20349;DHT22;10332;50.208;18.988;2024-01-11T04:32:06;-4.80;1.00
20349;DHT22;10332;50.208;18.988;2024-01-11T04:34:34;-4.80;1.00
20349;DHT22;10332;50.208;18.988;2024-01-11T04:37:01;-4.80;1.00
20349;DHT22;10332;50.208;18.988;2024-01-11T04:39:29;-4.60;1.00
20349;DHT22;10332;50.208;18.988;2024-01-11T04:41:56;-4.80;1.00
20349;DHT22;10332;50.208;18.988;2024-01-11T04:44:23;-4.70;1.00
20349;DHT22;10332;50.208;18.988;2024-01-11T04:46:53;-4.80;1.00
20349;DHT22;10332;50.208;18.988;2024-01-11T04:49:21;-4.80;1.00
20349;DHT22;10332;50.208;18.988;2024-01-11T04:51:48;-4.80;1.00
20349;DHT22;10332;50.208;18.988;2024-01-11T04:54:16;-4.90;1.00
20349;DHT22;10332;50.208;18.988;2024-01-11T04:56:43;-4.90;1.00
20349;DHT22;10332;50.208;18.988;2024-01-11T04:59:11;-4.90;1.00
20349;DHT22;10332;50.208;18.988;2024-01-11T05:01:38;-4.90;1.00
20349;DHT22;10332;50.208;18.988;2024-01-11T05:04:06;-4.90;1.00
20349;DHT22;10332;50.208;18.988;2024-01-11T05:06:33;-5.00;1.00
20349;DHT22;10332;50.208;18.988;2024-01-11T05:09:01;-4.90;1.00
20349;DHT22;10332;50.208;18.988;2024-01-11T05:11:29;-5.00;1.00
20349;DHT22;10332;50.208;18.988;2024-01-11T05:13:56;-5.00;1.00
20349;DHT22;10332;50.208;18.988;2024-01-11T05:16:25;-5.10;1.00
20349;DHT22;10332;50.208;18.988;2024-01-11T05:18:56;-5.20;1.00
20349;DHT22;10332;50.208;18.988;2024-01-11T05:21:25;-5.10;1.00
20349;DHT22;10332;50.208;18.988;2024-01-11T05:23:53;-5.20;1.00
20349;DHT22;10332;50.208;18.988;2024-01-11T05:26:20;-5.20;1.00
20349;DHT22;10332;50.208;18.988;2024-01-11T05:28:48;-5.20;1.00
20349;DHT22;10332;50.208;18.988;2024-01-11T05:31:16;-5.20;1.00
20349;DHT22;10332;50.208;18.988;2024-01-11T05:33:45;-5.20;1.00
20349;DHT22;10332;50.208;18.988;2024-01-11T05:36:14;-5.20;1.00
20349;DHT22;10332;50.208;18.988;2024-01-11T05:38:42;-5.20;1.00
20349;DHT22;10332;50.208;18.988;2024-01-11T05:41:10;-5.20;1.00
20349;DHT22;10332;50.208;18.988;2024-01-11T05:43:38;-5.10;1.00
20349;DHT22;10332;50.208;18.988;2024-01-11T05:46:06;-5.10;1.00
20349;DHT22;10332;50.208;18.988;2024-01-11T05:48:34;-5.10;1.00
20349;DHT22;10332;50.208;18.988;2024-01-11T05:51:02;-5.10;1.00
20349;DHT22;10332;50.208;18.988;2024-01-11T05:53:29;-5.10;1.00
20349;DHT22;10332;50.208;18.988;2024-01-11T05:55:57;-5.10;1.00
20349;DHT22;10332;50.208;18.988;2024-01-11T05:58:24;-5.10;1.00
20349;DHT22;10332;50.208;18.988;2024-01-11T06:00:51;-5.10;1.00
20349;DHT22;10332;50.208;18.988;2024-01-11T06:03:19;-5.10;1.00
20349;DHT22;10332;50.208;18.988;2024-01-11T06:05:46;-5.10;1.00
20349;DHT22;10332;50.208;18.988;2024-01-11T06:08:14;-5.10;1.00
20349;DHT22;10332;50.208;18.988;2024-01-11T06:10:41;-5.10;1.00
20349;DHT22;10332;50.208;18.988;2024-01-11T06:13:09;-5.10;1.00
20349;DHT22;10332;50.208;18.988;2024-01-11T06:15:36;-5.00;1.00
20349;DHT22;10332;50.208;18.988;2024-01-11T06:18:04;-5.00;1.00
20349;DHT22;10332;50.208;18.988;2024-01-11T06:20:32;-5.00;1.00
20349;DHT22;10332;50.208;18.988;2024-01-11T06:22:59;-4.90;1.00
20349;DHT22;10332;50.208;18.988;2024-01-11T06:25:27;-4.90;99.90
20349;DHT22;10332;50.208;18.988;2024-01-11T06:27:54;-4.90;99.90
20349;DHT22;10332;50.208;18.988;2024-01-11T06:30:22;-4.90;99.90
20349;DHT22;10332;50.208;18.988;2024-01-11T06:32:50;-4.90;99.90
20349;DHT22;10332;50.208;18.988;2024-01-11T06:35:17;-4.90;99.90
20349;DHT22;10332;50.208;18.988;2024-01-11T06:37:45;-4.80;99.90
20349;DHT22;10332;50.208;18.988;2024-01-11T06:40:12;-4.80;99.90
20349;DHT22;10332;50.208;18.988;2024-01-11T06:42:40;-4.80;99.90
20349;DHT22;10332;50.208;18.988;2024-01-11T06:45:09;-4.70;99.90
20349;DHT22;10332;50.208;18.988;2024-01-11T06:47:36;-4.70;99.90
20349;DHT22;10332;50.208;18.988;2024-01-11T06:50:04;-4.60;99.90
20349;DHT22;10332;50.208;18.988;2024-01-11T06:52:32;-4.60;99.90
20349;DHT22;10332;50.208;18.988;2024-01-11T06:54:59;-4.50;99.90
20349;DHT22;10332;50.208;18.988;2024-01-11T06:57:28;-4.40;99.90
20349;DHT22;10332;50.208;18.988;2024-01-11T06:59:56;-4.40;99.90
20349;DHT22;10332;50.208;18.988;2024-01-11T07:02:23;-4.40;99.90
20349;DHT22;10332;50.208;18.988;2024-01-11T07:04:50;-4.40;99.90
20349;DHT22;10332;50.208;18.988;2024-01-11T07:07:18;-4.30;99.90
20349;DHT22;10332;50.208;18.988;2024-01-11T07:09:45;-4.30;99.90
20349;DHT22;10332;50.208;18.988;2024-01-11T07:12:13;-4.20;99.90
20349;DHT22;10332;50.208;18.988;2024-01-11T07:14:42;-4.20;99.90
20349;DHT22;10332;50.208;18.988;2024-01-11T07:17:10;-4.10;99.90
20349;DHT22;10332;50.208;18.988;2024-01-11T07:19:38;-4.00;99.90
20349;DHT22;10332;50.208;18.988;2024-01-11T07:22:07;-4.00;99.90
20349;DHT22;10332;50.208;18.988;2024-01-11T07:24:35;-4.00;99.90
20349;DHT22;10332;50.208;18.988;2024-01-11T07:27:06;-3.90;99.90
20349;DHT22;10332;50.208;18.988;2024-01-11T07:29:34;-3.90;99.90
20349;DHT22;10332;50.208;18.988;2024-01-11T07:32:01;-3.90;99.90
20349;DHT22;10332;50.208;18.988;2024-01-11T07:34:32;-3.80;99.90
20349;DHT22;10332;50.208;18.988;2024-01-11T07:37:00;-3.80;99.90
20349;DHT22;10332;50.208;18.988;2024-01-11T07:39:27;-3.60;99.90
20349;DHT22;10332;50.208;18.988;2024-01-11T07:41:55;-3.40;99.90
20349;DHT22;10332;50.208;18.988;2024-01-11T07:44:22;-3.00;99.90
20349;DHT22;10332;50.208;18.988;2024-01-11T07:46:50;-2.80;99.90
20349;DHT22;10332;50.208;18.988;2024-01-11T07:49:21;-2.60;99.90
20349;DHT22;10332;50.208;18.988;2024-01-11T07:51:49;-2.30;99.90
20349;DHT22;10332;50.208;18.988;2024-01-11T07:54:16;-2.10;99.90
20349;DHT22;10332;50.208;18.988;2024-01-11T07:56:44;-2.00;99.90
20349;DHT22;10332;50.208;18.988;2024-01-11T07:59:11;-1.90;99.90
20349;DHT22;10332;50.208;18.988;2024-01-11T08:01:42;-1.60;99.90
20349;DHT22;10332;50.208;18.988;2024-01-11T08:04:09;-1.20;99.90
20349;DHT22;10332;50.208;18.988;2024-01-11T08:06:37;-1.00;99.90
20349;DHT22;10332;50.208;18.988;2024-01-11T08:09:05;-0.80;99.90
20349;DHT22;10332;50.208;18.988;2024-01-11T08:11:33;-0.40;99.90
20349;DHT22;10332;50.208;18.988;2024-01-11T08:14:04;0.00;99.90
20349;DHT22;10332;50.208;18.988;2024-01-11T08:16:33;0.20;99.90
20349;DHT22;10332;50.208;18.988;2024-01-11T08:19:01;0.20;99.90
20349;DHT22;10332;50.208;18.988;2024-01-11T08:21:29;0.20;99.90
20349;DHT22;10332;50.208;18.988;2024-01-11T08:23:56;0.10;99.90
20349;DHT22;10332;50.208;18.988;2024-01-11T08:26:29;0.20;99.90
20349;DHT22;10332;50.208;18.988;2024-01-11T08:28:59;0.40;99.90
20349;DHT22;10332;50.208;18.988;2024-01-11T08:31:27;0.50;99.90
20349;DHT22;10332;50.208;18.988;2024-01-11T08:33:54;0.50;99.90
20349;DHT22;10332;50.208;18.988;2024-01-11T08:36:22;0.50;99.90
20349;DHT22;10332;50.208;18.988;2024-01-11T08:38:49;0.60;99.90
20349;DHT22;10332;50.208;18.988;2024-01-11T08:41:17;0.70;98.80
20349;DHT22;10332;50.208;18.988;2024-01-11T08:43:44;0.70;97.20
20349;DHT22;10332;50.208;18.988;2024-01-11T08:46:12;0.60;95.10
20349;DHT22;10332;50.208;18.988;2024-01-11T08:48:39;0.70;93.40
20349;DHT22;10332;50.208;18.988;2024-01-11T08:51:06;0.60;91.30
20349;DHT22;10332;50.208;18.988;2024-01-11T08:53:34;0.60;91.10
20349;DHT22;10332;50.208;18.988;2024-01-11T08:56:01;0.50;89.70
20349;DHT22;10332;50.208;18.988;2024-01-11T08:58:28;0.50;88.30
20349;DHT22;10332;50.208;18.988;2024-01-11T09:00:56;0.40;90.20
20349;DHT22;10332;50.208;18.988;2024-01-11T09:03:23;0.30;90.40
20349;DHT22;10332;50.208;18.988;2024-01-11T09:05:51;0.30;88.50
20349;DHT22;10332;50.208;18.988;2024-01-11T09:08:19;0.30;85.60
20349;DHT22;10332;50.208;18.988;2024-01-11T09:10:46;0.40;84.50
20349;DHT22;10332;50.208;18.988;2024-01-11T09:13:14;0.60;79.30
20349;DHT22;10332;50.208;18.988;2024-01-11T09:15:43;0.80;77.40
20349;DHT22;10332;50.208;18.988;2024-01-11T09:18:10;1.20;72.20
20349;DHT22;10332;50.208;18.988;2024-01-11T09:20:38;1.70;64.30
20349;DHT22;10332;50.208;18.988;2024-01-11T09:23:05;2.10;54.10
20349;DHT22;10332;50.208;18.988;2024-01-11T09:25:33;2.50;47.50
20349;DHT22;10332;50.208;18.988;2024-01-11T09:28:00;3.00;39.30
20349;DHT22;10332;50.208;18.988;2024-01-11T09:30:28;3.40;30.00
20349;DHT22;10332;50.208;18.988;2024-01-11T09:32:55;3.50;24.30
20349;DHT22;10332;50.208;18.988;2024-01-11T09:35:23;3.30;20.60
20349;DHT22;10332;50.208;18.988;2024-01-11T09:37:51;3.00;19.80
20349;DHT22;10332;50.208;18.988;2024-01-11T09:40:19;2.80;21.30
20349;DHT22;10332;50.208;18.988;2024-01-11T09:42:46;2.70;20.60
20349;DHT22;10332;50.208;18.988;2024-01-11T09:45:14;2.60;20.50
20349;DHT22;10332;50.208;18.988;2024-01-11T09:47:45;2.70;20.90
20349;DHT22;10332;50.208;18.988;2024-01-11T09:50:15;2.60;19.10
20349;DHT22;10332;50.208;18.988;2024-01-11T09:52:49;2.60;19.70
20349;DHT22;10332;50.208;18.988;2024-01-11T09:55:17;2.60;19.30
20349;DHT22;10332;50.208;18.988;2024-01-11T09:57:47;2.50;18.50
20349;DHT22;10332;50.208;18.988;2024-01-11T10:00:22;2.50;17.90
20349;DHT22;10332;50.208;18.988;2024-01-11T10:02:50;2.70;16.70
20349;DHT22;10332;50.208;18.988;2024-01-11T10:05:19;2.90;16.30
20349;DHT22;10332;50.208;18.988;2024-01-11T10:07:46;2.90;16.10
20349;DHT22;10332;50.208;18.988;2024-01-11T10:10:14;3.00;14.30
20349;DHT22;10332;50.208;18.988;2024-01-11T10:12:44;3.00;13.00
20349;DHT22;10332;50.208;18.988;2024-01-11T10:15:15;2.80;12.00
20349;DHT22;10332;50.208;18.988;2024-01-11T10:17:43;2.70;10.70
20349;DHT22;10332;50.208;18.988;2024-01-11T10:20:15;2.60;12.70
20349;DHT22;10332;50.208;18.988;2024-01-11T10:22:43;2.50;12.20
20349;DHT22;10332;50.208;18.988;2024-01-11T10:25:14;2.30;12.80
20349;DHT22;10332;50.208;18.988;2024-01-11T10:27:43;2.10;12.70
20349;DHT22;10332;50.208;18.988;2024-01-11T10:30:12;2.00;13.80
20349;DHT22;10332;50.208;18.988;2024-01-11T10:32:40;1.90;14.60
20349;DHT22;10332;50.208;18.988;2024-01-11T10:35:08;1.90;15.50
20349;DHT22;10332;50.208;18.988;2024-01-11T10:37:36;1.90;16.50
20349;DHT22;10332;50.208;18.988;2024-01-11T10:40:09;2.00;17.10
20349;DHT22;10332;50.208;18.988;2024-01-11T10:42:42;2.10;17.40
20349;DHT22;10332;50.208;18.988;2024-01-11T10:45:15;2.30;17.20
20349;DHT22;10332;50.208;18.988;2024-01-11T10:48:00;2.30;15.70
20349;DHT22;10332;50.208;18.988;2024-01-11T10:50:36;2.30;15.70
20349;DHT22;10332;50.208;18.988;2024-01-11T10:55:44;2.40;15.50
20349;DHT22;10332;50.208;18.988;2024-01-11T10:58:12;2.50;15.00
20349;DHT22;10332;50.208;18.988;2024-01-11T11:00:40;2.60;15.60
20349;DHT22;10332;50.208;18.988;2024-01-11T11:03:09;2.60;13.50
20349;DHT22;10332;50.208;18.988;2024-01-11T11:05:37;2.60;14.50
20349;DHT22;10332;50.208;18.988;2024-01-11T11:08:06;2.60;14.50
20349;DHT22;10332;50.208;18.988;2024-01-11T11:10:34;2.60;14.20
20349;DHT22;10332;50.208;18.988;2024-01-11T11:13:03;2.60;13.60
20349;DHT22;10332;50.208;18.988;2024-01-11T11:15:32;2.50;13.80
20349;DHT22;10332;50.208;18.988;2024-01-11T11:18:00;2.50;14.60
20349;DHT22;10332;50.208;18.988;2024-01-11T11:20:28;2.50;15.10
20349;DHT22;10332;50.208;18.988;2024-01-11T11:23:06;2.50;14.70
20349;DHT22;10332;50.208;18.988;2024-01-11T11:25:34;2.60;14.30
20349;DHT22;10332;50.208;18.988;2024-01-11T11:28:02;2.90;13.30
20349;DHT22;10332;50.208;18.988;2024-01-11T11:30:42;3.30;12.30
20349;DHT22;10332;50.208;18.988;2024-01-11T11:33:20;3.70;8.60
20349;DHT22;10332;50.208;18.988;2024-01-11T11:35:50;4.70;5.40
20349;DHT22;10332;50.208;18.988;2024-01-11T11:38:23;5.30;1.00
20349;DHT22;10332;50.208;18.988;2024-01-11T11:40:53;5.60;1.00
20349;DHT22;10332;50.208;18.988;2024-01-11T11:43:23;5.60;1.00
20349;DHT22;10332;50.208;18.988;2024-01-11T11:45:52;6.00;1.00
20349;DHT22;10332;50.208;18.988;2024-01-11T11:51:12;7.00;1.00
20349;DHT22;10332;50.208;18.988;2024-01-11T11:53:47;7.30;1.00
20349;DHT22;10332;50.208;18.988;2024-01-11T11:56:20;7.30;1.00
20349;DHT22;10332;50.208;18.988;2024-01-11T11:58:49;7.00;1.00
20349;DHT22;10332;50.208;18.988;2024-01-11T12:01:18;6.80;1.00
20349;DHT22;10332;50.208;18.988;2024-01-11T12:03:46;6.60;1.00
20349;DHT22;10332;50.208;18.988;2024-01-11T12:06:19;6.40;1.00
20349;DHT22;10332;50.208;18.988;2024-01-11T12:08:48;6.00;1.00
20349;DHT22;10332;50.208;18.988;2024-01-11T12:11:20;5.60;1.00
20349;DHT22;10332;50.208;18.988;2024-01-11T12:13:49;5.40;1.00
20349;DHT22;10332;50.208;18.988;2024-01-11T12:16:17;5.10;1.00
20349;DHT22;10332;50.208;18.988;2024-01-11T12:18:44;4.90;1.00
20349;DHT22;10332;50.208;18.988;2024-01-11T12:21:13;4.80;1.00
20349;DHT22;10332;50.208;18.988;2024-01-11T12:23:41;4.70;1.00
20349;DHT22;10332;50.208;18.988;2024-01-11T12:26:09;4.50;1.00
20349;DHT22;10332;50.208;18.988;2024-01-11T12:28:41;4.40;1.00
20349;DHT22;10332;50.208;18.988;2024-01-11T12:31:10;4.20;1.00
20349;DHT22;10332;50.208;18.988;2024-01-11T12:33:37;4.20;1.00
20349;DHT22;10332;50.208;18.988;2024-01-11T12:36:09;4.00;1.00
20349;DHT22;10332;50.208;18.988;2024-01-11T12:38:37;3.90;1.00
20349;DHT22;10332;50.208;18.988;2024-01-11T12:41:05;3.70;1.00
20349;DHT22;10332;50.208;18.988;2024-01-11T12:43:33;3.60;1.00
20349;DHT22;10332;50.208;18.988;2024-01-11T12:46:02;3.50;1.00
20349;DHT22;10332;50.208;18.988;2024-01-11T12:48:29;3.30;1.00
20349;DHT22;10332;50.208;18.988;2024-01-11T12:50:58;3.30;1.00
20349;DHT22;10332;50.208;18.988;2024-01-11T12:53:46;3.20;1.00
20349;DHT22;10332;50.208;18.988;2024-01-11T12:56:15;3.20;1.00
20349;DHT22;10332;50.208;18.988;2024-01-11T12:58:43;3.20;1.00
20349;DHT22;10332;50.208;18.988;2024-01-11T13:01:13;3.00;1.00
20349;DHT22;10332;50.208;18.988;2024-01-11T13:03:44;2.80;1.00
20349;DHT22;10332;50.208;18.988;2024-01-11T13:06:15;2.70;1.00
20349;DHT22;10332;50.208;18.988;2024-01-11T13:08:43;2.60;1.30
20349;DHT22;10332;50.208;18.988;2024-01-11T13:11:10;2.40;3.40
20349;DHT22;10332;50.208;18.988;2024-01-11T13:13:41;2.30;5.60
20349;DHT22;10332;50.208;18.988;2024-01-11T13:16:08;2.20;23.60
20349;DHT22;10332;50.208;18.988;2024-01-11T13:18:41;2.10;10.60
20349;DHT22;10332;50.208;18.988;2024-01-11T13:21:09;2.00;13.60
20349;DHT22;10332;50.208;18.988;2024-01-11T13:23:37;1.90;17.10
20349;DHT22;10332;50.208;18.988;2024-01-11T13:26:06;1.80;19.50
20349;DHT22;10332;50.208;18.988;2024-01-11T13:28:34;1.80;22.40
20349;DHT22;10332;50.208;18.988;2024-01-11T13:31:02;1.80;24.80
20349;DHT22;10332;50.208;18.988;2024-01-11T13:33:30;1.80;27.10
20349;DHT22;10332;50.208;18.988;2024-01-11T13:35:57;1.60;30.70
20349;DHT22;10332;50.208;18.988;2024-01-11T13:38:25;1.60;34.10
20349;DHT22;10332;50.208;18.988;2024-01-11T13:40:52;1.50;42.00
20349;DHT22;10332;50.208;18.988;2024-01-11T13:43:20;1.40;46.80
20349;DHT22;10332;50.208;18.988;2024-01-11T13:45:47;1.30;54.20
20349;DHT22;10332;50.208;18.988;2024-01-11T13:48:14;1.20;62.40
20349;DHT22;10332;50.208;18.988;2024-01-11T13:50:42;1.20;74.10
20349;DHT22;10332;50.208;18.988;2024-01-11T13:53:09;1.20;81.30
20349;DHT22;10332;50.208;18.988;2024-01-11T13:55:37;1.10;91.10
20349;DHT22;10332;50.208;18.988;2024-01-11T13:58:07;1.20;97.00
20349;DHT22;10332;50.208;18.988;2024-01-11T14:00:35;1.10;99.90
20349;DHT22;10332;50.208;18.988;2024-01-11T14:03:03;1.10;99.90
20349;DHT22;10332;50.208;18.988;2024-01-11T14:05:33;1.00;99.90
20349;DHT22;10332;50.208;18.988;2024-01-11T14:08:01;1.00;99.90
20349;DHT22;10332;50.208;18.988;2024-01-11T14:10:33;0.90;99.90
20349;DHT22;10332;50.208;18.988;2024-01-11T14:13:01;0.80;99.90
20349;DHT22;10332;50.208;18.988;2024-01-11T14:15:29;0.80;99.90
20349;DHT22;10332;50.208;18.988;2024-01-11T14:17:58;0.80;99.90
20349;DHT22;10332;50.208;18.988;2024-01-11T14:20:26;0.90;99.90
20349;DHT22;10332;50.208;18.988;2024-01-11T14:22:54;0.80;99.90
20349;DHT22;10332;50.208;18.988;2024-01-11T14:25:23;0.90;99.90
20349;DHT22;10332;50.208;18.988;2024-01-11T14:27:52;0.90;99.90
20349;DHT22;10332;50.208;18.988;2024-01-11T14:30:20;0.90;99.90
20349;DHT22;10332;50.208;18.988;2024-01-11T14:32:50;0.80;99.90
20349;DHT22;10332;50.208;18.988;2024-01-11T14:35:17;0.80;99.90
20349;DHT22;10332;50.208;18.988;2024-01-11T14:37:45;0.80;99.90
20349;DHT22;10332;50.208;18.988;2024-01-11T14:40:13;0.70;99.90
20349;DHT22;10332;50.208;18.988;2024-01-11T14:42:41;0.70;99.90
20349;DHT22;10332;50.208;18.988;2024-01-11T14:45:08;0.60;99.90
20349;DHT22;10332;50.208;18.988;2024-01-11T14:47:36;0.60;99.90
20349;DHT22;10332;50.208;18.988;2024-01-11T14:50:04;0.50;99.90
20349;DHT22;10332;50.208;18.988;2024-01-11T14:52:33;0.50;99.90
20349;DHT22;10332;50.208;18.988;2024-01-11T14:55:00;0.50;1.00
20349;DHT22;10332;50.208;18.988;2024-01-11T14:57:33;0.40;1.00
20349;DHT22;10332;50.208;18.988;2024-01-11T15:00:00;0.40;1.00
20349;DHT22;10332;50.208;18.988;2024-01-11T15:02:28;0.40;1.00
20349;DHT22;10332;50.208;18.988;2024-01-11T15:04:56;0.40;1.00
20349;DHT22;10332;50.208;18.988;2024-01-11T15:07:23;0.30;1.00
20349;DHT22;10332;50.208;18.988;2024-01-11T15:09:53;0.30;1.00
20349;DHT22;10332;50.208;18.988;2024-01-11T15:12:22;0.30;1.00
20349;DHT22;10332;50.208;18.988;2024-01-11T15:14:49;0.30;1.00
20349;DHT22;10332;50.208;18.988;2024-01-11T15:17:19;0.30;1.00
20349;DHT22;10332;50.208;18.988;2024-01-11T15:19:47;0.30;1.00
20349;DHT22;10332;50.208;18.988;2024-01-11T15:22:15;0.30;1.00
20349;DHT22;10332;50.208;18.988;2024-01-11T15:24:43;0.30;1.00
20349;DHT22;10332;50.208;18.988;2024-01-11T15:27:11;0.20;1.00
20349;DHT22;10332;50.208;18.988;2024-01-11T15:29:39;0.20;1.00
20349;DHT22;10332;50.208;18.988;2024-01-11T15:32:09;0.20;1.00
20349;DHT22;10332;50.208;18.988;2024-01-11T15:34:37;0.10;1.00
20349;DHT22;10332;50.208;18.988;2024-01-11T15:37:07;0.10;1.00
20349;DHT22;10332;50.208;18.988;2024-01-11T15:39:34;0.10;1.00